Portada
METAR-TAF:

METAR-TAF

Aeropuertos :

Aeropuerto Internacional Ted Stevens Anchorage

Anchorage, Alaska, Estados Unidos

latitud: 61-10-28N, longitud: 149-59-46W, altitud: 44 m

Observación

El informe se hizo hace 46 minutos, a las 05:53 UTC
Viento 6 kt del oeste
Temperatura 16°C
Humedad 72%
Presión 1025 hPa
Visibilidad: 16.1 km
Escasas nubes a una altura de 6000 ft
Escasas nubes a una altura de 25000 ft

METAR: PANC 200553Z 26006KT 10SM FEW060 FEW250 16/11 A3026 RMK AO2 SLP247 T01560106 10200 20156 53004

Hora: 22:39 (06:39 UTC)

Pronóstico

El informe se hizo hace 1 hora y 9 minutos, a las 05:30 UTC
Pronóstico válido del 20 a las 06 UTC al 21 a las 12 UTC
Viento 7 kt del oeste-noroeste
Visibilidad: 10 km
Cielo despejado

TAF: PANC 200530Z 2006/2112 29007KT P6SM SKC

Observaciones y pronósticos meteorológicos de más de 4000 aeropuertos (mensajes METAR y TAF).

Los puntos amarillos y rojos representan las estaciones disponibles.

Ponga el ratón en el punto deseado para ver el nombre de la estación.

Haga clic para ver las observaciones y los pronósticos meteorológicos.

Para cambiar el mapa : haga clic en los botones verdes con una cruz de color negro para hacer un zoom, en el botón verde con un guión para alejar o en las flechas verdes para mapas adyacentes.


METAR-TAF: